createdAt,value
2022-08-16T00:03:37.772Z,99.90
2022-08-16T00:13:54.392Z,99.90
2022-08-16T00:34:08.917Z,99.90
2022-08-16T00:39:20.759Z,99.90
2022-08-16T00:49:39.774Z,99.90
2022-08-16T00:54:46.781Z,99.90
2022-08-16T00:59:54.553Z,99.90
2022-08-16T01:15:19.066Z,99.90
2022-08-16T01:20:24.669Z,99.90
2022-08-16T01:25:36.425Z,99.90
2022-08-16T01:30:49.870Z,99.90
2022-08-16T01:36:00.375Z,99.90
2022-08-16T02:11:59.241Z,99.90
2022-08-16T02:22:36.000Z,99.90
2022-08-16T02:27:40.950Z,99.90
2022-08-16T02:32:50.397Z,99.90
2022-08-16T02:37:56.263Z,99.90
2022-08-16T02:53:23.991Z,99.90
2022-08-16T03:29:33.162Z,99.90
2022-08-16T03:34:35.113Z,99.90
2022-08-16T03:44:49.404Z,99.90
2022-08-16T03:54:57.897Z,99.90
2022-08-16T04:00:01.171Z,99.90
2022-08-16T04:05:08.133Z,99.90
2022-08-16T04:10:36.760Z,99.90
2022-08-16T04:35:49.588Z,99.90
2022-08-16T04:46:00.537Z,99.90
2022-08-16T04:56:14.141Z,99.90
2022-08-16T05:01:18.964Z,99.90
2022-08-16T05:36:58.694Z,99.90
2022-08-16T05:52:05.647Z,99.90
2022-08-16T05:57:13.244Z,99.90
2022-08-16T06:12:29.072Z,99.90
2022-08-16T06:17:43.111Z,99.90
2022-08-16T06:22:47.902Z,99.90
2022-08-16T06:27:59.830Z,99.90
2022-08-16T06:33:03.765Z,99.90
2022-08-16T06:43:27.853Z,99.90
2022-08-16T06:48:32.527Z,99.90
2022-08-16T06:53:36.430Z,99.90
2022-08-16T06:58:38.390Z,99.90
2022-08-16T07:03:55.687Z,99.90
2022-08-16T07:08:59.418Z,99.90
2022-08-16T07:14:24.350Z,99.90
2022-08-16T07:19:22.976Z,99.90
2022-08-16T07:24:45.612Z,99.90
2022-08-16T07:29:47.836Z,99.90
2022-08-16T07:34:50.217Z,99.90
2022-08-16T07:39:54.674Z,99.90
2022-08-16T07:44:57.750Z,99.90
2022-08-16T07:50:00.311Z,99.90
2022-08-16T07:55:09.846Z,99.90
2022-08-16T08:00:18.295Z,99.90
2022-08-16T08:05:35.322Z,99.90
2022-08-16T08:10:38.858Z,99.90
2022-08-16T08:15:40.556Z,99.90
2022-08-16T08:20:59.216Z,99.90
2022-08-16T08:26:02.026Z,99.90
2022-08-16T08:31:03.976Z,99.90
2022-08-16T08:36:07.612Z,99.90
2022-08-16T08:41:09.870Z,99.90
2022-08-16T08:46:18.192Z,99.90
2022-08-16T08:51:25.481Z,99.90
2022-08-16T08:56:34.779Z,99.90
2022-08-16T09:01:42.801Z,99.90
2022-08-16T09:06:48.053Z,99.90
2022-08-16T09:12:04.383Z,99.90
2022-08-16T09:17:21.573Z,99.90
2022-08-16T09:22:32.788Z,99.90
2022-08-16T09:27:46.732Z,99.90
2022-08-16T09:32:58.326Z,99.90
2022-08-16T09:38:01.219Z,99.90
2022-08-16T09:43:04.931Z,99.90
2022-08-16T09:48:10.096Z,99.90
2022-08-16T09:53:32.000Z,99.90
2022-08-16T09:58:40.811Z,99.90
2022-08-16T10:04:02.794Z,99.90
2022-08-16T10:09:08.247Z,99.90
2022-08-16T10:14:10.324Z,99.90
2022-08-16T10:19:19.443Z,99.90
2022-08-16T10:30:00.924Z,99.90
2022-08-16T10:34:52.629Z,99.90
2022-08-16T10:39:54.492Z,99.90
2022-08-16T10:44:57.580Z,99.90
2022-08-16T10:49:59.470Z,99.90
2022-08-16T11:00:24.032Z,99.90
2022-08-16T11:15:57.627Z,99.90
2022-08-16T11:26:16.664Z,99.90
2022-08-16T11:31:25.223Z,99.90
2022-08-16T11:41:34.063Z,99.90
2022-08-16T11:46:45.100Z,99.90
2022-08-16T11:51:49.964Z,99.90
2022-08-16T11:56:56.893Z,99.90
2022-08-16T12:02:04.128Z,98.40
2022-08-16T12:07:23.763Z,97.70
2022-08-16T12:12:25.833Z,98.00
2022-08-16T12:17:32.054Z,97.90
2022-08-16T12:22:36.653Z,99.90
2022-08-16T12:27:39.651Z,98.00
2022-08-16T12:37:46.196Z,98.10
2022-08-16T12:42:53.014Z,98.00
2022-08-16T12:53:39.796Z,97.60
2022-08-16T12:58:49.792Z,97.50
2022-08-16T13:04:12.509Z,95.50
2022-08-16T13:14:32.159Z,94.40
2022-08-16T13:20:05.542Z,96.80
2022-08-16T13:30:00.108Z,95.20
2022-08-16T13:35:01.985Z,95.40
2022-08-16T13:40:05.981Z,93.60
2022-08-16T13:45:15.593Z,96.10
2022-08-16T13:55:33.829Z,94.80
2022-08-16T14:00:36.432Z,96.20
2022-08-16T14:10:40.654Z,93.60
2022-08-16T14:41:01.528Z,92.30
2022-08-16T14:46:07.366Z,93.40
2022-08-16T14:51:10.779Z,90.20
2022-08-16T14:56:17.466Z,90.60
2022-08-16T15:01:57.201Z,92.20
2022-08-16T15:12:26.642Z,89.20
2022-08-16T15:22:43.229Z,91.30
2022-08-16T15:27:45.890Z,92.30
2022-08-16T15:33:05.948Z,92.70
2022-08-16T15:38:09.087Z,90.40
2022-08-16T15:43:11.338Z,92.30
2022-08-16T15:48:14.296Z,92.60
2022-08-16T15:53:24.250Z,92.70
2022-08-16T15:58:35.503Z,94.40
2022-08-16T16:03:40.465Z,95.20
2022-08-16T16:08:43.254Z,94.20
2022-08-16T16:13:47.740Z,93.70
2022-08-16T16:18:53.589Z,93.20
2022-08-16T16:23:57.746Z,94.50
2022-08-16T16:29:07.953Z,93.90
2022-08-16T16:34:12.452Z,94.00
2022-08-16T16:39:14.132Z,92.80
2022-08-16T16:54:43.493Z,94.50
2022-08-16T16:59:48.760Z,95.10
2022-08-16T17:04:57.398Z,94.90
2022-08-16T17:09:59.452Z,94.90
2022-08-16T17:15:02.498Z,95.20
2022-08-16T17:20:05.448Z,95.20
2022-08-16T17:25:14.872Z,95.40
2022-08-16T17:30:45.069Z,95.90
2022-08-16T17:35:55.431Z,96.10
2022-08-16T17:40:59.288Z,96.40
2022-08-16T17:46:02.446Z,96.70
2022-08-16T17:51:06.325Z,96.50
2022-08-16T17:56:09.128Z,97.10
2022-08-16T18:01:10.948Z,97.10
2022-08-16T18:06:15.666Z,97.40
2022-08-16T18:11:25.861Z,97.40
2022-08-16T18:16:28.036Z,97.20
2022-08-16T18:21:48.280Z,97.30
2022-08-16T18:26:50.562Z,97.40
2022-08-16T18:31:52.415Z,98.20
2022-08-16T18:36:54.144Z,98.10
2022-08-16T18:41:56.323Z,97.20
2022-08-16T18:46:57.978Z,97.30
2022-08-16T18:52:00.848Z,97.90
2022-08-16T18:57:07.730Z,98.00
2022-08-16T19:02:09.734Z,99.00
2022-08-16T19:07:31.799Z,97.70
2022-08-16T19:12:38.071Z,99.30
2022-08-16T19:17:45.182Z,99.90
2022-08-16T19:23:05.600Z,99.90
2022-08-16T19:28:08.248Z,99.90
2022-08-16T19:33:29.990Z,99.80
2022-08-16T19:38:31.700Z,99.90
2022-08-16T19:43:33.398Z,99.90
2022-08-16T19:48:35.342Z,99.90
2022-08-16T19:53:37.303Z,99.90
2022-08-16T19:58:50.971Z,99.90
2022-08-16T20:04:00.722Z,99.90
2022-08-16T20:09:02.765Z,99.90
2022-08-16T20:14:04.686Z,99.90
2022-08-16T20:19:06.519Z,99.90
2022-08-16T20:24:32.652Z,99.90
2022-08-16T20:34:33.226Z,99.90
2022-08-16T20:39:35.163Z,99.90
2022-08-16T20:44:37.071Z,99.90
2022-08-16T20:49:38.776Z,99.90
2022-08-16T20:54:40.986Z,99.90
2022-08-16T20:59:48.043Z,99.90
2022-08-16T21:04:51.638Z,99.90
2022-08-16T21:09:53.340Z,99.90
2022-08-16T21:14:55.014Z,99.90
2022-08-16T21:19:56.706Z,99.90
2022-08-16T21:24:58.431Z,99.90
2022-08-16T21:30:01.062Z,99.90
2022-08-16T21:35:08.538Z,99.90
2022-08-16T21:40:11.948Z,99.90
2022-08-16T21:45:14.393Z,99.90
2022-08-16T21:50:16.129Z,99.90
2022-08-16T21:55:17.809Z,99.90
2022-08-16T22:00:19.592Z,99.90
2022-08-16T22:05:21.981Z,99.90
2022-08-16T22:11:05.055Z,99.90
2022-08-16T22:15:47.890Z,99.90
2022-08-16T22:20:50.399Z,99.90
2022-08-16T22:25:54.180Z,99.90
2022-08-16T22:30:55.973Z,99.90
2022-08-16T22:35:59.973Z,99.90
2022-08-16T22:41:03.668Z,99.90
2022-08-16T22:46:05.456Z,99.90
2022-08-16T22:51:07.473Z,99.90
2022-08-16T22:56:09.311Z,99.90
2022-08-16T23:01:12.665Z,99.90
2022-08-16T23:06:14.913Z,99.90
2022-08-16T23:11:22.594Z,99.90
2022-08-16T23:16:31.658Z,99.90
2022-08-16T23:21:37.085Z,99.90
2022-08-16T23:36:55.544Z,99.90
2022-08-16T23:41:58.068Z,99.90
2022-08-16T23:46:59.747Z,99.90
2022-08-16T23:52:09.665Z,99.90
2022-08-16T23:57:11.410Z,99.90
